| time (UTC) | temp F | wind direction | speed MPH | gust MPH | rain 1hr in | rain 24hr in | rain mn in | humidity % | barometer mb |
| 20260508002107 | 47 | 316 | 1.0 | 2.0 | 0.00 | 0.03 | 0.03 | 55 | 1011.3 |
| 20260508001602 | 48 | 314 | 0.0 | 1.0 | 0.00 | 0.03 | 0.03 | 54 | 1011.2 |
| 20260508001059 | 48 | 325 | 2.0 | 3.0 | 0.00 | 0.03 | 0.03 | 54 | 1011.4 |
| 20260508000555 | 48 | 304 | 3.0 | 3.0 | 0.00 | 0.03 | 0.03 | 53 | 1011.5 |
| 20260508000052 | 48 | 289 | 2.0 | 2.0 | 0.00 | 0.03 | 0.03 | 53 | 1011.3 |
| 20260507235549 | 49 | 267 | 1.0 | 3.0 | 0.00 | 0.03 | 0.03 | 52 | 1011.3 |
| 20260507235047 | 49 | 290 | 5.0 | 6.0 | 0.00 | 0.03 | 0.03 | 51 | 1011.1 |
| 20260507234542 | 49 | 309 | 4.0 | 4.0 | 0.00 | 0.03 | 0.03 | 51 | 1011.2 |
| 20260507234039 | 49 | 286 | 4.0 | 4.0 | 0.00 | 0.03 | 0.03 | 51 | 1011.2 |
| 20260507233536 | 50 | 287 | 3.0 | 3.0 | 0.00 | 0.03 | 0.03 | 51 | 1011.2 |
| 20260507233035 | 50 | 238 | 4.0 | 4.0 | 0.00 | 0.03 | 0.03 | 50 | 1011.0 |
| 20260507232530 | 51 | 292 | 4.0 | 6.0 | 0.00 | 0.03 | 0.03 | 48 | 1011.1 |
| 20260507232028 | 51 | 355 | 2.0 | 3.0 | 0.00 | 0.03 | 0.03 | 50 | 1011.0 |
| 20260507231524 | 51 | 296 | 2.0 | 3.0 | 0.00 | 0.03 | 0.03 | 50 | 1010.8 |
| 20260507231022 | 51 | 284 | 6.0 | 8.0 | 0.00 | 0.03 | 0.03 | 50 | 1010.9 |
| 20260507230518 | 51 | 336 | 4.0 | 6.0 | 0.00 | 0.03 | 0.03 | 51 | 1010.8 |
| 20260507230015 | 51 | 223 | 6.0 | 7.0 | 0.00 | 0.03 | 0.03 | 51 | 1010.9 |
| 20260507225510 | 51 | 290 | 5.0 | 7.0 | 0.00 | 0.03 | 0.03 | 50 | 1010.8 |
| 20260507225007 | 52 | 298 | 4.0 | 7.0 | 0.00 | 0.03 | 0.03 | 49 | 1011.0 |
| 20260507224502 | 53 | 297 | 3.0 | 4.0 | 0.00 | 0.03 | 0.03 | 50 | 1010.8 |
| 20260507223959 | 52 | 251 | 7.0 | 8.0 | 0.00 | 0.03 | 0.03 | 50 | 1010.8 |
| 20260507223455 | 51 | 227 | 5.0 | 6.0 | 0.00 | 0.03 | 0.03 | 51 | 1010.8 |
| 20260507222952 | 53 | 317 | 4.0 | 7.0 | 0.00 | 0.03 | 0.03 | 50 | 1010.5 |
| 20260507222449 | 53 | 292 | 7.0 | 11.0 | 0.00 | 0.03 | 0.03 | 48 | 1010.6 |
| 20260507221945 | 54 | 318 | 4.0 | 6.0 | 0.00 | 0.03 | 0.03 | 48 | 1010.6 |
| 20260507221442 | 54 | 169 | 7.0 | 9.0 | 0.00 | 0.03 | 0.03 | 48 | 1010.5 |
| 20260507220939 | 54 | 251 | 7.0 | 8.0 | 0.00 | 0.03 | 0.03 | 46 | 1010.6 |
| 20260507220437 | 55 | 325 | 4.0 | 7.0 | 0.00 | 0.03 | 0.03 | 45 | 1010.3 |
| 20260507215933 | 54 | 310 | 1.0 | 2.0 | 0.00 | 0.03 | 0.03 | 50 | 1010.2 |
| 20260507215429 | 53 | 296 | 4.0 | 6.0 | 0.00 | 0.03 | 0.03 | 48 | 1010.2 |
| 20260507214926 | 54 | 308 | 5.0 | 7.0 | 0.00 | 0.03 | 0.03 | 48 | 1010.3 |
| 20260507214424 | 54 | 359 | 3.0 | 3.0 | 0.00 | 0.03 | 0.03 | 48 | 1010.1 |
| 20260507213919 | 54 | 237 | 9.0 | 13.0 | 0.00 | 0.03 | 0.03 | 48 | 1010.3 |
| 20260507213416 | 53 | 251 | 4.0 | 6.0 | 0.00 | 0.03 | 0.03 | 52 | 1010.1 |
| 20260507212913 | 53 | 321 | 2.0 | 3.0 | 0.00 | 0.03 | 0.03 | 48 | 1010.0 |
| 20260507212409 | 53 | 258 | 7.0 | 10.0 | 0.00 | 0.03 | 0.03 | 48 | 1009.9 |
| 20260507211906 | 52 | 275 | 5.0 | 7.0 | 0.00 | 0.03 | 0.03 | 50 | 1009.9 |
| 20260507211402 | 53 | 303 | 3.0 | 3.0 | 0.00 | 0.03 | 0.03 | 50 | 1010.0 |
| 20260507210859 | 53 | 307 | 3.0 | 3.0 | 0.00 | 0.03 | 0.03 | 50 | 1010.0 |
| 20260507210356 | 52 | 284 | 3.0 | 3.0 | 0.00 | 0.03 | 0.03 | 53 | 1010.0 |
| 20260507205852 | 52 | 305 | 5.0 | 8.0 | 0.00 | 0.03 | 0.03 | 52 | 1010.1 |
| 20260507205349 | 52 | 267 | 4.0 | 4.0 | 0.00 | 0.03 | 0.03 | 51 | 1010.0 |
| 20260507204846 | 52 | 322 | 3.0 | 4.0 | 0.00 | 0.03 | 0.03 | 52 | 1009.7 |
| 20260507204343 | 53 | 251 | 5.0 | 9.0 | 0.00 | 0.03 | 0.03 | 50 | 1009.8 |
| 20260507203841 | 54 | 269 | 13.0 | 16.0 | 0.00 | 0.03 | 0.03 | 48 | 1009.9 |
| 20260507203338 | 54 | 337 | 6.0 | 8.0 | 0.00 | 0.03 | 0.03 | 49 | 1010.0 |
| 20260507202834 | 54 | 349 | 0.0 | 1.0 | 0.00 | 0.03 | 0.03 | 51 | 1009.8 |
| 20260507202331 | 53 | 241 | 3.0 | 6.0 | 0.00 | 0.03 | 0.03 | 54 | 1010.0 |
| 20260507201826 | 53 | 275 | 8.0 | 9.0 | 0.00 | 0.03 | 0.03 | 51 | 1009.9 |
| 20260507201322 | 54 | 259 | 8.0 | 10.0 | 0.00 | 0.03 | 0.03 | 50 | 1010.2 |
| 20260507200819 | 54 | 261 | 8.0 | 10.0 | 0.00 | 0.03 | 0.03 | 50 | 1010.1 |
| 20260507200314 | 54 | 291 | 8.0 | 9.0 | 0.00 | 0.03 | 0.03 | 51 | 1010.2 |
| 20260507195811 | 55 | 234 | 4.0 | 6.0 | 0.00 | 0.03 | 0.03 | 49 | 1010.5 |
| 20260507195308 | 53 | 358 | 5.0 | 6.0 | 0.00 | 0.03 | 0.03 | 51 | 1010.3 |
| 20260507194806 | 54 | 307 | 4.0 | 6.0 | 0.00 | 0.03 | 0.03 | 50 | 1010.5 |
| 20260507194301 | 54 | 305 | 4.0 | 7.0 | 0.00 | 0.03 | 0.03 | 51 | 1010.3 |
| 20260507193758 | 55 | 341 | 3.0 | 3.0 | 0.00 | 0.03 | 0.03 | 49 | 1010.5 |
| 20260507193255 | 55 | 246 | 8.0 | 10.0 | 0.00 | 0.03 | 0.03 | 51 | 1010.5 |
| 20260507192751 | 55 | 355 | 4.0 | 7.0 | 0.00 | 0.03 | 0.03 | 49 | 1010.5 |
| 20260507192248 | 54 | 279 | 8.0 | 9.0 | 0.00 | 0.03 | 0.03 | 50 | 1010.5 |
| 20260507191744 | 53 | 289 | 8.0 | 11.0 | 0.00 | 0.03 | 0.03 | 49 | 1010.5 |
| 20260507191241 | 53 | 233 | 5.0 | 7.0 | 0.00 | 0.03 | 0.03 | 53 | 1010.6 |
| 20260507190738 | 54 | 226 | 4.0 | 6.0 | 0.00 | 0.03 | 0.03 | 51 | 1010.2 |
| 20260507190236 | 55 | 233 | 11.0 | 14.0 | 0.00 | 0.03 | 0.03 | 50 | 1010.3 |
| 20260507185735 | 53 | 277 | 4.0 | 6.0 | 0.00 | 0.03 | 0.03 | 52 | 1010.2 |
| 20260507185231 | 54 | 244 | 8.0 | 10.0 | 0.00 | 0.03 | 0.03 | 52 | 1010.3 |
| 20260507184729 | 54 | 317 | 6.0 | 8.0 | 0.00 | 0.03 | 0.03 | 52 | 1010.5 |
| 20260507184227 | 53 | 214 | 4.0 | 4.0 | 0.00 | 0.03 | 0.03 | 53 | 1010.5 |
| 20260507183723 | 54 | 231 | 14.0 | 17.0 | 0.00 | 0.03 | 0.03 | 51 | 1010.5 |
| 20260507183220 | 53 | 230 | 6.0 | 8.0 | 0.00 | 0.03 | 0.03 | 54 | 1010.6 |
| 20260507182717 | 53 | 281 | 4.0 | 6.0 | 0.00 | 0.03 | 0.03 | 56 | 1010.3 |
| 20260507182212 | 53 | 337 | 3.0 | 3.0 | 0.00 | 0.03 | 0.03 | 56 | 1010.7 |
| 20260507181709 | 53 | 300 | 3.0 | 3.0 | 0.00 | 0.03 | 0.03 | 56 | 1010.5 |
| 20260507181206 | 55 | 293 | 5.0 | 9.0 | 0.00 | 0.03 | 0.03 | 55 | 1010.8 |
| 20260507180702 | 54 | 270 | 4.0 | 6.0 | 0.00 | 0.03 | 0.03 | 54 | 1010.6 |
| 20260507180159 | 53 | 300 | 2.0 | 3.0 | 0.00 | 0.03 | 0.03 | 55 | 1010.6 |
| 20260507175655 | 53 | 310 | 0.0 | 1.0 | 0.00 | 0.03 | 0.03 | 59 | 1010.6 |
| 20260507175152 | 53 | 319 | 5.0 | 8.0 | 0.00 | 0.03 | 0.03 | 59 | 1010.8 |
| 20260507174649 | 54 | 172 | 4.0 | 6.0 | 0.00 | 0.03 | 0.03 | 57 | 1010.5 |
| 20260507174148 | 54 | 346 | 4.0 | 6.0 | 0.00 | 0.03 | 0.03 | 59 | 1010.7 |
| 20260507173644 | 53 | 299 | 4.0 | 6.0 | 0.00 | 0.03 | 0.03 | 57 | 1010.8 |
| 20260507173141 | 52 | 251 | 3.0 | 4.0 | 0.00 | 0.03 | 0.03 | 58 | 1010.9 |
| 20260507172637 | 53 | 246 | 4.0 | 6.0 | 0.00 | 0.03 | 0.03 | 58 | 1010.7 |
| 20260507172135 | 53 | 321 | 3.0 | 4.0 | 0.00 | 0.03 | 0.03 | 58 | 1010.9 |
| 20260507171635 | 52 | 314 | 4.0 | 7.0 | 0.00 | 0.03 | 0.03 | 59 | 1010.9 |
| 20260507171133 | 52 | 295 | 6.0 | 9.0 | 0.00 | 0.03 | 0.03 | 59 | 1011.1 |
| 20260507170630 | 52 | 310 | 3.0 | 4.0 | 0.00 | 0.03 | 0.03 | 61 | 1011.0 |
| 20260507170127 | 52 | 326 | 0.0 | 1.0 | 0.00 | 0.03 | 0.03 | 62 | 1011.2 |
| 20260507165622 | 52 | 306 | 4.0 | 4.0 | 0.00 | 0.03 | 0.03 | 63 | 1011.4 |
| 20260507165119 | 51 | 229 | 2.0 | 3.0 | 0.00 | 0.03 | 0.03 | 62 | 1011.3 |
| 20260507164615 | 51 | 310 | 6.0 | 11.0 | 0.00 | 0.03 | 0.03 | 59 | 1011.3 |
| 20260507164112 | 51 | 243 | 4.0 | 7.0 | 0.00 | 0.03 | 0.03 | 61 | 1011.7 |
| 20260507163609 | 51 | 319 | 2.0 | 3.0 | 0.00 | 0.03 | 0.03 | 65 | 1011.5 |
| 20260507163108 | 51 | 296 | 6.0 | 9.0 | 0.00 | 0.03 | 0.03 | 65 | 1011.8 |
| 20260507162607 | 52 | 187 | 7.0 | 9.0 | 0.00 | 0.03 | 0.03 | 64 | 1011.5 |
| 20260507162104 | 51 | 292 | 3.0 | 3.0 | 0.00 | 0.03 | 0.03 | 66 | 1011.5 |
| 20260507161600 | 51 | 276 | 7.0 | 8.0 | 0.00 | 0.03 | 0.03 | 66 | 1011.7 |
| 20260507161057 | 50 | 279 | 4.0 | 4.0 | 0.00 | 0.03 | 0.03 | 72 | 1011.9 |
| 20260507160554 | 50 | 268 | 5.0 | 7.0 | 0.00 | 0.03 | 0.03 | 68 | 1011.7 |
| 20260507160050 | 49 | 211 | 2.0 | 6.0 | 0.00 | 0.03 | 0.03 | 70 | 1011.8 |
| 20260507155545 | 50 | 312 | 2.0 | 3.0 | 0.00 | 0.03 | 0.03 | 69 | 1011.9 |
| 20260507155043 | 50 | 274 | 2.0 | 2.0 | 0.00 | 0.03 | 0.03 | 69 | 1011.8 |
| 20260507154539 | 50 | 279 | 4.0 | 6.0 | 0.00 | 0.03 | 0.03 | 70 | 1011.8 |
| 20260507154037 | 50 | 240 | 6.0 | 8.0 | 0.00 | 0.03 | 0.03 | 66 | 1011.8 |
| 20260507153534 | 49 | 288 | 6.0 | 8.0 | 0.00 | 0.03 | 0.03 | 69 | 1011.9 |
| 20260507153030 | 50 | 300 | 5.0 | 7.0 | 0.00 | 0.03 | 0.03 | 67 | 1011.9 |
| 20260507152526 | 49 | 228 | 9.0 | 11.0 | 0.00 | 0.03 | 0.03 | 69 | 1011.9 |
| 20260507152022 | 50 | 291 | 4.0 | 6.0 | 0.00 | 0.03 | 0.03 | 72 | 1011.9 |
| 20260507151518 | 49 | 303 | 5.0 | 6.0 | 0.00 | 0.03 | 0.03 | 73 | 1012.0 |
| 20260507151015 | 49 | 272 | 9.0 | 10.0 | 0.00 | 0.03 | 0.03 | 72 | 1012.1 |
| 20260507150512 | 48 | 338 | 2.0 | 2.0 | 0.00 | 0.03 | 0.03 | 76 | 1012.0 |
| 20260507150009 | 49 | 228 | 5.0 | 7.0 | 0.00 | 0.03 | 0.03 | 74 | 1012.0 |
| 20260507145504 | 48 | 318 | 1.0 | 2.0 | 0.00 | 0.03 | 0.03 | 76 | 1012.4 |
| 20260507145001 | 47 | 314 | 1.0 | 2.0 | 0.00 | 0.03 | 0.03 | 77 | 1012.3 |
| 20260507144458 | 47 | 301 | 4.0 | 6.0 | 0.00 | 0.03 | 0.03 | 75 | 1012.3 |
| 20260507143955 | 46 | 280 | 2.0 | 3.0 | 0.00 | 0.03 | 0.03 | 76 | 1012.4 |
| 20260507143453 | 46 | 348 | 4.0 | 4.0 | 0.00 | 0.03 | 0.03 | 77 | 1012.5 |
| 20260507142949 | 46 | 323 | 2.0 | 3.0 | 0.00 | 0.03 | 0.03 | 80 | 1012.5 |
| 20260507142445 | 46 | 275 | 5.0 | 6.0 | 0.00 | 0.03 | 0.03 | 74 | 1012.6 |
| 20260507141942 | 45 | 286 | 4.0 | 4.0 | 0.00 | 0.03 | 0.03 | 77 | 1012.5 |
| 20260507141438 | 45 | 300 | 1.0 | 3.0 | 0.00 | 0.03 | 0.03 | 80 | 1012.8 |
| 20260507140935 | 45 | 266 | 6.0 | 7.0 | 0.00 | 0.03 | 0.03 | 81 | 1012.9 |
| 20260507140432 | 44 | 240 | 3.0 | 4.0 | 0.00 | 0.03 | 0.03 | 81 | 1012.8 |
| 20260507135930 | 44 | 227 | 4.0 | 4.0 | 0.00 | 0.03 | 0.03 | 81 | 1012.9 |
| 20260507135426 | 44 | 304 | 3.0 | 3.0 | 0.00 | 0.03 | 0.03 | 82 | 1012.9 |
| 20260507134924 | 45 | 312 | 3.0 | 3.0 | 0.00 | 0.03 | 0.03 | 82 | 1013.1 |
| 20260507134420 | 45 | 222 | 4.0 | 6.0 | 0.00 | 0.03 | 0.03 | 83 | 1012.9 |
| 20260507133916 | 45 | 242 | 3.0 | 6.0 | 0.00 | 0.03 | 0.03 | 83 | 1013.1 |
| 20260507133412 | 44 | 316 | 0.0 | 0.0 | 0.00 | 0.03 | 0.03 | 85 | 1013.0 |
| 20260507132911 | 44 | 281 | 4.0 | 4.0 | 0.00 | 0.03 | 0.03 | 84 | 1013.1 |
| 20260507132407 | 44 | 296 | 2.0 | 2.0 | 0.00 | 0.03 | 0.03 | 83 | 1013.1 |
| 20260507131903 | 44 | 322 | 2.0 | 2.0 | 0.00 | 0.03 | 0.03 | 87 | 1013.1 |
| 20260507131400 | 43 | 303 | 1.0 | 2.0 | 0.00 | 0.03 | 0.03 | 89 | 1012.9 |
| 20260507130857 | 43 | 287 | 1.0 | 2.0 | 0.00 | 0.03 | 0.03 | 88 | 1013.2 |
| 20260507130354 | 43 | 314 | 2.0 | 3.0 | 0.00 | 0.03 | 0.03 | 90 | 1013.0 |
| 20260507125853 | 43 | 269 | 2.0 | 2.0 | 0.00 | 0.03 | 0.03 | 90 | 1013.4 |
| 20260507125350 | 43 | 303 | 2.0 | 3.0 | 0.00 | 0.03 | 0.03 | 90 | 1013.2 |
| 20260507124848 | 43 | 318 | 0.0 | 0.0 | 0.00 | 0.03 | 0.03 | 91 | 1013.0 |
| 20260507124343 | 42 | 302 | 2.0 | 2.0 | 0.00 | 0.03 | 0.03 | 91 | 1013.2 |
| 20260507123842 | 42 | 296 | 2.0 | 3.0 | 0.00 | 0.03 | 0.03 | 93 | 1013.2 |
| 20260507123339 | 42 | 316 | 2.0 | 3.0 | 0.00 | 0.03 | 0.03 | 93 | 1013.4 |
| 20260507122836 | 42 | 305 | 2.0 | 2.0 | 0.00 | 0.03 | 0.03 | 93 | 1013.5 |
| 20260507122331 | 42 | 311 | 1.0 | 1.0 | 0.00 | 0.03 | 0.03 | 93 | 1013.3 |
| 20260507121827 | 42 | 288 | 1.0 | 2.0 | 0.00 | 0.03 | 0.03 | 94 | 1013.3 |
| 20260507121323 | 41 | 272 | 1.0 | 2.0 | 0.00 | 0.03 | 0.03 | 93 | 1013.3 |
| 20260507120819 | 41 | 271 | 1.0 | 2.0 | 0.00 | 0.03 | 0.03 | 94 | 1013.2 |
| 20260507120316 | 41 | 292 | 1.0 | 1.0 | 0.00 | 0.03 | 0.03 | 95 | 1013.1 |
| 20260507115812 | 41 | 299 | 0.0 | 0.0 | 0.00 | 0.03 | 0.03 | 96 | 1013.0 |
| 20260507115308 | 41 | 300 | 0.0 | 0.0 | 0.00 | 0.03 | 0.03 | 96 | 1013.2 |
| 20260507114804 | 41 | 300 | 0.0 | 0.0 | 0.00 | 0.03 | 0.03 | 96 | 1013.1 |
| 20260507114301 | 41 | 300 | 0.0 | 0.0 | 0.00 | 0.03 | 0.03 | 96 | 1013.1 |
| 20260507113759 | 41 | 300 | 0.0 | 0.0 | 0.00 | 0.03 | 0.03 | 97 | 1013.0 |
| 20260507113256 | 41 | 300 | 0.0 | 0.0 | 0.00 | 0.03 | 0.03 | 97 | 1012.8 |
| 20260507112754 | 41 | 300 | 0.0 | 0.0 | 0.00 | 0.03 | 0.03 | 97 | 1012.5 |
| 20260507112250 | 41 | 299 | 1.0 | 1.0 | 0.00 | 0.03 | 0.03 | 97 | 1012.6 |
| 20260507111748 | 41 | 299 | 0.0 | 0.0 | 0.00 | 0.03 | 0.03 | 97 | 1012.8 |
| 20260507111244 | 41 | 295 | 0.0 | 0.0 | 0.00 | 0.03 | 0.03 | 97 | 1012.4 |
| 20260507110740 | 41 | 300 | 0.0 | 0.0 | 0.00 | 0.03 | 0.03 | 97 | 1012.6 |
| 20260507110237 | 41 | 300 | 0.0 | 0.0 | 0.00 | 0.03 | 0.03 | 97 | 1012.5 |
| 20260507105734 | 41 | 296 | 1.0 | 1.0 | 0.00 | 0.03 | 0.03 | 97 | 1012.6 |
| 20260507105230 | 40 | 305 | 0.0 | 0.0 | 0.00 | 0.03 | 0.03 | 97 | 1012.4 |
| 20260507104727 | 40 | 286 | 2.0 | 2.0 | 0.00 | 0.03 | 0.03 | 97 | 1012.5 |
| 20260507104224 | 41 | 299 | 1.0 | 1.0 | 0.00 | 0.03 | 0.03 | 98 | 1012.5 |
| 20260507103720 | 41 | 288 | 2.0 | 2.0 | 0.00 | 0.03 | 0.03 | 98 | 1012.5 |
| 20260507103216 | 41 | 301 | 1.0 | 1.0 | 0.00 | 0.03 | 0.03 | 98 | 1012.3 |
| 20260507102713 | 41 | 308 | 0.0 | 0.0 | 0.00 | 0.03 | 0.03 | 98 | 1012.3 |
| 20260507102209 | 41 | 306 | 0.0 | 0.0 | 0.00 | 0.03 | 0.03 | 98 | 1012.3 |
| 20260507101705 | 41 | 309 | 1.0 | 2.0 | 0.00 | 0.03 | 0.03 | 98 | 1012.3 |
| 20260507101200 | 41 | 304 | 1.0 | 2.0 | 0.00 | 0.03 | 0.03 | 98 | 1012.2 |
| 20260507100658 | 41 | 305 | 0.0 | 1.0 | 0.00 | 0.03 | 0.03 | 98 | 1012.1 |
| 20260507100157 | 41 | 309 | 1.0 | 2.0 | 0.00 | 0.03 | 0.03 | 98 | 1012.1 |
| 20260507095654 | 42 | 315 | 0.0 | 1.0 | 0.00 | 0.03 | 0.03 | 98 | 1012.0 |
| 20260507095151 | 42 | 322 | 0.0 | 0.0 | 0.00 | 0.03 | 0.03 | 98 | 1011.8 |
| 20260507094647 | 42 | 306 | 0.0 | 0.0 | 0.00 | 0.03 | 0.03 | 99 | 1011.8 |
| 20260507094144 | 42 | 320 | 0.0 | 0.0 | 0.00 | 0.03 | 0.03 | 98 | 1011.5 |
| 20260507093642 | 42 | 319 | 0.0 | 1.0 | 0.00 | 0.03 | 0.03 | 98 | 1011.8 |
| 20260507093141 | 42 | 309 | 1.0 | 1.0 | 0.00 | 0.03 | 0.03 | 98 | 1011.9 |
| 20260507092636 | 42 | 304 | 0.0 | 1.0 | 0.00 | 0.03 | 0.03 | 98 | 1011.9 |
| 20260507092133 | 42 | 303 | 0.0 | 1.0 | 0.00 | 0.03 | 0.03 | 98 | 1012.0 |
| 20260507091630 | 42 | 331 | 0.0 | 1.0 | 0.00 | 0.03 | 0.03 | 98 | 1012.1 |
| 20260507091126 | 43 | 333 | 0.0 | 0.0 | 0.00 | 0.03 | 0.03 | 98 | 1012.0 |
| 20260507090621 | 43 | 324 | 0.0 | 0.0 | 0.00 | 0.03 | 0.03 | 98 | 1012.0 |
| 20260507090119 | 43 | 299 | 1.0 | 1.0 | 0.00 | 0.03 | 0.03 | 98 | 1012.0 |
| 20260507085616 | 43 | 302 | 1.0 | 2.0 | 0.00 | 0.03 | 0.03 | 98 | 1011.8 |
| 20260507085112 | 43 | 313 | 1.0 | 1.0 | 0.07 | 0.03 | 0.03 | 98 | 1011.9 |
| 20260507084609 | 43 | 251 | 3.0 | 3.0 | 0.07 | 0.03 | 0.03 | 98 | 1011.8 |
| 20260507084106 | 43 | 304 | 1.0 | 1.0 | 0.00 | 0.02 | 0.02 | 98 | 1011.9 |
| 20260507083603 | 43 | 280 | 0.0 | 0.0 | 0.00 | 0.02 | 0.02 | 98 | 1012.1 |
| 20260507083100 | 43 | 307 | 1.0 | 1.0 | 0.00 | 0.02 | 0.02 | 98 | 1012.0 |
| 20260507082555 | 43 | 286 | 3.0 | 3.0 | 0.00 | 0.02 | 0.02 | 98 | 1012.0 |
| 20260507082052 | 43 | 289 | 3.0 | 3.0 | 0.00 | 0.02 | 0.02 | 98 | 1012.0 |
| 20260507081548 | 43 | 309 | 0.0 | 0.0 | 0.00 | 0.02 | 0.02 | 98 | 1011.9 |
| 20260507081045 | 43 | 312 | 2.0 | 2.0 | 0.00 | 0.02 | 0.02 | 98 | 1012.3 |
| 20260507080541 | 43 | 301 | 1.0 | 2.0 | 0.00 | 0.02 | 0.02 | 98 | 1011.9 |
| 20260507080038 | 43 | 301 | 2.0 | 2.0 | 0.00 | 0.02 | 0.02 | 98 | 1011.9 |
| 20260507075533 | 43 | 301 | 2.0 | 2.0 | 0.00 | 0.02 | 0.02 | 98 | 1011.9 |
| 20260507075030 | 43 | 278 | 2.0 | 3.0 | 0.00 | 0.02 | 0.02 | 98 | 1012.0 |
| 20260507074526 | 43 | 318 | 1.0 | 2.0 | 0.00 | 0.02 | 0.02 | 98 | 1012.0 |
| 20260507074025 | 43 | 269 | 3.0 | 3.0 | 0.00 | 0.02 | 0.02 | 99 | 1011.9 |
| 20260507073521 | 43 | 297 | 1.0 | 1.0 | 0.00 | 0.02 | 0.02 | 98 | 1011.7 |
| 20260507073018 | 43 | 291 | 1.0 | 2.0 | 0.00 | 0.02 | 0.02 | 98 | 1011.9 |
| 20260507072515 | 43 | 251 | 2.0 | 2.0 | 0.00 | 0.02 | 0.02 | 99 | 1012.0 |
| 20260507072012 | 43 | 306 | 1.0 | 1.0 | 0.00 | 0.02 | 0.02 | 99 | 1012.0 |
| 20260507071509 | 43 | 293 | 2.0 | 2.0 | 0.00 | 0.02 | 0.02 | 98 | 1011.9 |
| 20260507071006 | 43 | 287 | 2.0 | 2.0 | 0.00 | 0.02 | 0.02 | 99 | 1012.0 |
| 20260507070503 | 43 | 294 | 1.0 | 2.0 | 0.00 | 0.02 | 0.02 | 98 | 1012.0 |
| 20260507070000 | 43 | 303 | 0.0 | 0.0 | 0.00 | 0.02 | 0.02 | 98 | 1011.9 |
| 20260507065456 | 43 | 302 | 0.0 | 0.0 | 0.00 | 0.02 | 0.02 | 98 | 1012.1 |
| 20260507064954 | 43 | 303 | 0.0 | 0.0 | 0.00 | 0.02 | 0.02 | 98 | 1012.0 |
| 20260507064452 | 42 | 303 | 0.0 | 1.0 | 0.00 | 0.02 | 0.02 | 98 | 1011.8 |
| 20260507063949 | 43 | 310 | 1.0 | 2.0 | 0.00 | 0.02 | 0.02 | 98 | 1011.8 |
| 20260507063446 | 43 | 296 | 1.0 | 1.0 | 0.00 | 0.02 | 0.02 | 98 | 1012.1 |
| 20260507062943 | 43 | 303 | 1.0 | 1.0 | 0.00 | 0.02 | 0.02 | 98 | 1012.0 |
| 20260507062440 | 43 | 308 | 2.0 | 2.0 | 0.00 | 0.02 | 0.02 | 98 | 1012.0 |
| 20260507061937 | 43 | 288 | 0.0 | 0.0 | 0.00 | 0.02 | 0.02 | 98 | 1012.2 |
| 20260507061436 | 43 | 298 | 2.0 | 2.0 | 0.00 | 0.02 | 0.02 | 98 | 1012.4 |
| 20260507060934 | 42 | 306 | 0.0 | 1.0 | 0.00 | 0.02 | 0.02 | 98 | 1012.4 |
| 20260507060430 | 42 | 282 | 1.0 | 1.0 | 0.00 | 0.02 | 0.02 | 98 | 1012.4 |
| 20260507055927 | 43 | 258 | 2.0 | 2.0 | 0.00 | 0.02 | 0.02 | 98 | 1012.5 |
| 20260507055422 | 43 | 310 | 0.0 | 0.0 | 0.00 | 0.02 | 0.02 | 98 | 1012.5 |
| 20260507054919 | 43 | 311 | 0.0 | 0.0 | 0.00 | 0.02 | 0.02 | 98 | 1012.9 |
| 20260507054415 | 43 | 288 | 2.0 | 2.0 | 0.00 | 0.02 | 0.02 | 98 | 1012.8 |
| 20260507053913 | 43 | 304 | 0.0 | 1.0 | 0.00 | 0.02 | 0.02 | 98 | 1012.9 |
| 20260507053410 | 43 | 301 | 1.0 | 1.0 | 0.00 | 0.02 | 0.02 | 98 | 1013.1 |
| 20260507052909 | 43 | 305 | 0.0 | 0.0 | 0.00 | 0.02 | 0.02 | 98 | 1012.8 |
| 20260507052406 | 43 | 306 | 0.0 | 0.0 | 0.00 | 0.02 | 0.02 | 98 | 1013.0 |
| 20260507051903 | 43 | 306 | 0.0 | 0.0 | 0.00 | 0.02 | 0.02 | 98 | 1013.0 |
| 20260507051400 | 43 | 294 | 0.0 | 1.0 | 0.00 | 0.02 | 0.02 | 98 | 1013.0 |
| 20260507050857 | 43 | 300 | 2.0 | 2.0 | 0.05 | 0.02 | 0.02 | 98 | 1012.9 |
| 20260507050354 | 43 | 267 | 2.0 | 2.0 | 0.05 | 0.02 | 0.02 | 98 | 1012.9 |
| 20260507045850 | 43 | 293 | 1.0 | 1.0 | 0.05 | 0.02 | 0.02 | 98 | 1013.0 |
| 20260507045347 | 44 | 320 | 3.0 | 6.0 | 0.00 | 0.01 | 0.01 | 98 | 1013.0 |
| 20260507044845 | 44 | 297 | 2.0 | 2.0 | 0.00 | 0.01 | 0.01 | 98 | 1013.0 |
| 20260507044341 | 44 | 329 | 0.0 | 0.0 | 0.00 | 0.01 | 0.01 | 99 | 1012.9 |
| 20260507043837 | 44 | 331 | 0.0 | 0.0 | 0.00 | 0.01 | 0.01 | 99 | 1012.8 |
| 20260507043334 | 44 | 310 | 1.0 | 1.0 | 0.00 | 0.01 | 0.01 | 99 | 1012.5 |
| 20260507042830 | 44 | 320 | 0.0 | 0.0 | 0.00 | 0.01 | 0.01 | 99 | 1012.2 |
| 20260507042325 | 44 | 315 | 0.0 | 0.0 | 0.07 | 0.01 | 0.01 | 99 | 1012.4 |
| 20260507041823 | 44 | 318 | 2.0 | 2.0 | 0.07 | 0.01 | 0.01 | 99 | 1012.6 |
| 20260507041319 | 45 | 28 | 1.0 | 1.0 | 0.00 | 0.00 | 0.00 | 99 | 1012.6 |
| 20260507040816 | 45 | 257 | 2.0 | 3.0 | 0.00 | 0.00 | 0.00 | 99 | 1012.4 |
| 20260507040312 | 45 | 264 | 3.0 | 3.0 | 0.00 | 0.00 | 0.00 | 99 | 1012.3 |
| 20260507035808 | 45 | 311 | 0.0 | 1.0 | 0.00 | 0.61 | 0.61 | 99 | 1012.2 |
| 20260507035306 | 45 | 321 | 0.0 | 1.0 | 0.05 | 0.61 | 0.61 | 99 | 1012.5 |
| 20260507034802 | 45 | 316 | 0.0 | 1.0 | 0.05 | 0.61 | 0.61 | 99 | 1012.5 |
| 20260507034258 | 45 | 325 | 0.0 | 0.0 | 0.00 | 0.60 | 0.60 | 99 | 1012.6 |
| 20260507033757 | 46 | 218 | 1.0 | 3.0 | 0.00 | 0.60 | 0.60 | 99 | 1012.6 |
| 20260507033254 | 46 | 330 | 0.0 | 0.0 | 0.00 | 0.60 | 0.60 | 99 | 1012.5 |
| 20260507032751 | 46 | 297 | 1.0 | 2.0 | 0.07 | 0.60 | 0.60 | 99 | 1011.8 |
| 20260507032247 | 46 | 302 | 3.0 | 3.0 | 0.07 | 0.60 | 0.60 | 99 | 1012.6 |
| 20260507031743 | 47 | 299 | 4.0 | 7.0 | 0.00 | 0.59 | 0.59 | 99 | 1013.2 |
| 20260507031241 | 47 | 308 | 1.0 | 2.0 | 0.00 | 0.59 | 0.59 | 99 | 1013.1 |
| 20260507030737 | 47 | 302 | 0.0 | 1.0 | 0.00 | 0.59 | 0.59 | 99 | 1012.6 |
| 20260507030235 | 47 | 314 | 1.0 | 2.0 | 0.00 | 0.59 | 0.59 | 99 | 1012.3 |
| 20260507025732 | 47 | 273 | 2.0 | 2.0 | 0.00 | 0.59 | 0.59 | 99 | 1011.7 |
| 20260507025229 | 47 | 299 | 1.0 | 2.0 | 0.00 | 0.59 | 0.59 | 99 | 1012.1 |
| 20260507024727 | 47 | 291 | 2.0 | 2.0 | 0.00 | 0.59 | 0.59 | 99 | 1012.6 |
| 20260507024224 | 47 | 290 | 2.0 | 3.0 | 0.00 | 0.59 | 0.59 | 99 | 1012.8 |
| 20260507023719 | 47 | 296 | 2.0 | 3.0 | 0.05 | 0.59 | 0.59 | 99 | 1012.3 |
| 20260507023216 | 47 | 304 | 1.0 | 2.0 | 0.05 | 0.59 | 0.59 | 99 | 1012.8 |
| 20260507022714 | 47 | 301 | 2.0 | 2.0 | 0.00 | 0.58 | 0.58 | 99 | 1012.9 |
| 20260507022210 | 47 | 265 | 0.0 | 2.0 | 0.00 | 0.58 | 0.58 | 99 | 1012.6 |
| 20260507021706 | 47 | 310 | 4.0 | 4.0 | 0.00 | 0.58 | 0.58 | 99 | 1012.2 |
| 20260507021201 | 47 | 311 | 1.0 | 2.0 | 0.00 | 0.58 | 0.58 | 99 | 1012.1 |
| 20260507020701 | 47 | 285 | 1.0 | 2.0 | 0.00 | 0.58 | 0.58 | 99 | 1012.2 |
| 20260507020156 | 47 | 320 | 2.0 | 3.0 | 0.00 | 0.58 | 0.58 | 99 | 1012.0 |
| 20260507015654 | 47 | 274 | 2.0 | 2.0 | 0.00 | 0.58 | 0.58 | 99 | 1012.0 |
| 20260507015151 | 47 | 320 | 3.0 | 4.0 | 0.00 | 0.58 | 0.58 | 99 | 1011.9 |
| 20260507014648 | 47 | 255 | 2.0 | 3.0 | 0.07 | 0.58 | 0.58 | 99 | 1012.2 |
| 20260507014144 | 47 | 278 | 2.0 | 2.0 | 0.07 | 0.58 | 0.58 | 99 | 1011.9 |
| 20260507013641 | 47 | 327 | 1.0 | 1.0 | 0.00 | 0.57 | 0.57 | 99 | 1012.1 |
| 20260507013138 | 48 | 327 | 1.0 | 1.0 | 0.00 | 0.57 | 0.57 | 99 | 1011.8 |
| 20260507012635 | 48 | 321 | 1.0 | 1.0 | 0.00 | 0.57 | 0.57 | 99 | 1012.2 |
| 20260507012130 | 48 | 282 | 1.0 | 2.0 | 0.00 | 0.57 | 0.57 | 99 | 1012.0 |
| 20260507011629 | 48 | 308 | 0.0 | 1.0 | 0.00 | 0.57 | 0.57 | 99 | 1011.7 |
| 20260507011125 | 48 | 327 | 0.0 | 1.0 | 0.00 | 0.57 | 0.57 | 98 | 1011.7 |
| 20260507010620 | 48 | 305 | 1.0 | 1.0 | 0.00 | 0.57 | 0.57 | 99 | 1012.0 |
| 20260507010116 | 48 | 282 | 2.0 | 2.0 | 0.00 | 0.57 | 0.57 | 99 | 1011.7 |
| 20260507005614 | 48 | 324 | 2.0 | 2.0 | 0.00 | 0.57 | 0.57 | 98 | 1011.3 |
| 20260507005109 | 48 | 322 | 1.0 | 1.0 | 0.00 | 0.57 | 0.57 | 98 | 1011.9 |
| 20260507004606 | 48 | 331 | 2.0 | 3.0 | 0.00 | 0.57 | 0.57 | 98 | 1011.8 |
| 20260507004104 | 48 | 278 | 3.0 | 3.0 | 0.00 | 0.57 | 0.57 | 98 | 1011.8 |
| 20260507003600 | 48 | 319 | 3.0 | 3.0 | 0.00 | 0.57 | 0.57 | 98 | 1011.5 |
| 20260507003055 | 48 | 290 | 0.0 | 1.0 | 0.00 | 0.57 | 0.57 | 98 | 1010.9 |
| 20260507002552 | 48 | 268 | 2.0 | 2.0 | 0.00 | 0.57 | 0.57 | 98 | 1011.5 |